createdAt,value
2018-07-07T00:00:30.050Z,173.00
2018-07-07T00:01:30.149Z,170.90
2018-07-07T00:02:30.071Z,177.10
2018-07-07T00:03:30.095Z,167.90
2018-07-07T00:04:30.110Z,175.20
2018-07-07T00:05:30.123Z,176.90
2018-07-07T00:06:30.222Z,168.70
2018-07-07T00:07:30.147Z,173.00
2018-07-07T00:08:30.160Z,164.90
2018-07-07T00:09:30.154Z,164.00
2018-07-07T00:10:30.186Z,165.60
2018-07-07T00:11:30.329Z,164.80
2018-07-07T00:12:30.206Z,147.20
2018-07-07T00:13:30.217Z,144.90
2018-07-07T00:14:30.220Z,141.00
2018-07-07T00:15:30.239Z,139.80
2018-07-07T00:16:30.398Z,131.20
2018-07-07T00:17:30.268Z,128.60
2018-07-07T00:18:30.288Z,127.60
2018-07-07T00:19:30.282Z,126.00
2018-07-07T00:20:30.311Z,121.40
2018-07-07T00:21:30.476Z,116.40
2018-07-07T00:22:30.333Z,120.10
2018-07-07T00:23:30.349Z,119.30
2018-07-07T00:24:30.367Z,118.70
2018-07-07T00:25:30.359Z,122.30
2018-07-07T00:26:30.489Z,117.30
2018-07-07T00:27:30.405Z,122.70
2018-07-07T00:28:30.405Z,121.10
2018-07-07T00:29:30.414Z,123.80
2018-07-07T00:30:30.419Z,116.80
2018-07-07T00:31:30.647Z,113.80
2018-07-07T00:32:30.465Z,117.10
2018-07-07T00:33:30.457Z,113.00
2018-07-07T00:34:30.475Z,100.70
2018-07-07T00:35:30.507Z,103.90
2018-07-07T00:36:30.665Z,103.50
2018-07-07T00:37:30.544Z,102.40
2018-07-07T00:38:30.528Z,106.60
2018-07-07T00:39:30.556Z,105.20
2018-07-07T00:40:30.562Z,98.70
2018-07-07T00:41:30.665Z,98.10
2018-07-07T00:42:30.572Z,100.70
2018-07-07T00:43:30.612Z,100.10
2018-07-07T00:44:30.617Z,104.40
2018-07-07T00:45:30.643Z,108.90
2018-07-07T00:46:30.855Z,95.60
2018-07-07T00:47:30.660Z,99.80
2018-07-07T00:48:30.680Z,94.50
2018-07-07T00:49:30.692Z,91.20
2018-07-07T00:50:30.682Z,92.10
2018-07-07T00:51:30.839Z,98.30
2018-07-07T00:52:30.714Z,93.50
2018-07-07T00:53:30.740Z,94.00
2018-07-07T00:54:30.850Z,93.00
2018-07-07T00:55:30.763Z,87.80
2018-07-07T00:56:30.769Z,85.80
2018-07-07T00:57:30.833Z,90.10
2018-07-07T00:58:30.805Z,82.90
2018-07-07T00:59:30.814Z,92.50
2018-07-07T01:00:30.804Z,85.80
2018-07-07T01:01:31.017Z,86.30
2018-07-07T01:02:30.965Z,82.80
2018-07-07T01:03:30.865Z,84.70
2018-07-07T01:04:30.856Z,86.30
2018-07-07T01:05:30.880Z,86.30
2018-07-07T01:06:31.052Z,87.60
2018-07-07T01:07:30.909Z,90.80
2018-07-07T01:08:30.910Z,93.00
2018-07-07T01:09:30.994Z,91.20
2018-07-07T01:10:30.958Z,93.20
2018-07-07T01:11:31.097Z,93.60
2018-07-07T01:12:30.967Z,94.50
2018-07-07T01:13:31.000Z,96.30
2018-07-07T01:14:30.991Z,94.70
2018-07-07T01:15:31.000Z,93.20
2018-07-07T01:16:31.226Z,95.10
2018-07-07T01:17:31.051Z,98.10
2018-07-07T01:18:31.040Z,93.00
2018-07-07T01:19:31.051Z,90.80
2018-07-07T01:20:31.065Z,94.00
2018-07-07T01:21:31.243Z,94.60
2018-07-07T01:22:31.117Z,94.60
2018-07-07T01:23:31.128Z,88.20
2018-07-07T01:24:31.144Z,90.00
2018-07-07T01:25:31.161Z,94.50
2018-07-07T01:26:31.311Z,99.90
2018-07-07T01:27:31.180Z,97.10
2018-07-07T01:28:31.182Z,98.30
2018-07-07T01:29:31.206Z,89.30
2018-07-07T01:30:31.220Z,87.50
2018-07-07T01:31:31.370Z,98.60
2018-07-07T01:32:31.240Z,97.20
2018-07-07T01:33:31.243Z,104.40
2018-07-07T01:34:31.261Z,103.40
2018-07-07T01:35:31.278Z,95.70
2018-07-07T01:36:31.483Z,99.70
2018-07-07T01:37:31.304Z,99.30
2018-07-07T01:38:31.296Z,99.80
2018-07-07T01:39:31.333Z,108.60
2018-07-07T01:40:31.348Z,103.40
2018-07-07T01:41:31.351Z,100.90
2018-07-07T01:42:31.514Z,103.20
2018-07-07T01:43:31.363Z,108.00
2018-07-07T01:44:31.394Z,102.80
2018-07-07T01:45:31.410Z,107.80
2018-07-07T01:46:31.426Z,109.70
2018-07-07T01:47:31.581Z,114.10
2018-07-07T01:48:31.448Z,101.30
2018-07-07T01:49:31.465Z,104.80
2018-07-07T01:50:31.454Z,108.60
2018-07-07T01:51:31.491Z,104.80
2018-07-07T01:52:31.489Z,101.40
2018-07-07T01:53:31.663Z,99.10
2018-07-07T01:54:31.526Z,97.20
2018-07-07T01:55:31.537Z,105.40
2018-07-07T01:56:31.540Z,99.80
2018-07-07T01:57:31.559Z,102.30
2018-07-07T01:58:31.573Z,99.20
2018-07-07T01:59:31.684Z,100.00
2018-07-07T02:00:31.720Z,96.00
2018-07-07T02:01:31.598Z,94.30
2018-07-07T02:02:31.644Z,100.30
2018-07-07T02:03:31.652Z,103.50
2018-07-07T02:04:31.806Z,103.00
2018-07-07T02:05:31.678Z,104.60
2018-07-07T02:06:31.684Z,113.30
2018-07-07T02:07:31.700Z,108.50
2018-07-07T02:08:31.689Z,114.20
2018-07-07T02:09:31.711Z,109.40
2018-07-07T02:10:31.848Z,114.90
2018-07-07T02:11:31.735Z,123.50
2018-07-07T02:12:31.751Z,125.50
2018-07-07T02:13:31.779Z,122.20
2018-07-07T02:14:31.787Z,124.70
2018-07-07T02:15:31.999Z,123.40
2018-07-07T02:16:31.926Z,123.10
2018-07-07T02:17:31.805Z,127.90
2018-07-07T02:18:31.824Z,131.20
2018-07-07T02:19:31.850Z,126.40
2018-07-07T02:20:31.858Z,132.00
2018-07-07T02:21:31.933Z,132.10
2018-07-07T02:22:31.876Z,123.30
2018-07-07T02:23:31.888Z,129.50
2018-07-07T02:24:31.903Z,127.30
2018-07-07T02:25:31.929Z,125.40
2018-07-07T02:26:32.096Z,124.60
2018-07-07T02:27:31.959Z,123.20
2018-07-07T02:28:31.982Z,126.60
2018-07-07T02:29:31.964Z,131.30
2018-07-07T02:30:31.996Z,123.70
2018-07-07T02:31:32.098Z,126.00
2018-07-07T02:32:32.022Z,125.20
2018-07-07T02:33:32.033Z,126.10
2018-07-07T02:34:32.041Z,127.60
2018-07-07T02:35:32.050Z,133.00
2018-07-07T02:36:32.220Z,132.20
2018-07-07T02:37:32.082Z,128.90
2018-07-07T02:38:32.093Z,124.00
2018-07-07T02:39:32.105Z,114.00
2018-07-07T02:40:32.128Z,119.10
2018-07-07T02:41:32.179Z,112.80
2018-07-07T02:42:32.141Z,124.30
2018-07-07T02:43:32.166Z,115.70
2018-07-07T02:44:32.160Z,117.90
2018-07-07T02:45:32.381Z,121.60
2018-07-07T02:46:32.186Z,119.90
2018-07-07T02:47:32.217Z,127.60
2018-07-07T02:48:32.226Z,123.70
2018-07-07T02:49:32.247Z,112.80
2018-07-07T02:50:32.405Z,112.70
2018-07-07T02:51:32.277Z,118.90
2018-07-07T02:52:32.297Z,119.00
2018-07-07T02:53:32.283Z,121.60
2018-07-07T02:54:32.420Z,112.30
2018-07-07T02:55:32.473Z,106.80
2018-07-07T02:56:32.330Z,111.10
2018-07-07T02:57:32.339Z,105.40
2018-07-07T02:58:32.359Z,103.70
2018-07-07T02:59:32.366Z,106.60
2018-07-07T03:00:32.516Z,111.50
2018-07-07T03:01:32.387Z,123.90
2018-07-07T03:02:32.418Z,118.20
2018-07-07T03:03:32.413Z,111.30
2018-07-07T03:04:32.436Z,115.20
2018-07-07T03:05:32.593Z,115.80
2018-07-07T03:06:32.469Z,120.10
2018-07-07T03:07:32.467Z,120.80
2018-07-07T03:08:32.484Z,113.60
2018-07-07T03:09:32.513Z,114.70
2018-07-07T03:10:32.700Z,117.30
2018-07-07T03:11:32.526Z,124.00
2018-07-07T03:12:32.542Z,118.20
2018-07-07T03:13:32.544Z,114.90
2018-07-07T03:14:32.559Z,112.00
2018-07-07T03:15:32.571Z,108.30
2018-07-07T03:16:32.730Z,109.40
2018-07-07T03:17:32.588Z,110.50
2018-07-07T03:18:32.599Z,115.90
2018-07-07T03:19:32.746Z,110.40
2018-07-07T03:20:32.658Z,112.60
2018-07-07T03:21:32.772Z,117.60
2018-07-07T03:22:32.672Z,108.00
2018-07-07T03:23:32.664Z,117.70
2018-07-07T03:24:32.699Z,117.90
2018-07-07T03:25:32.700Z,122.00
2018-07-07T03:26:32.724Z,109.30
2018-07-07T03:27:32.821Z,106.90
2018-07-07T03:28:32.740Z,121.40
2018-07-07T03:29:32.757Z,112.30
2018-07-07T03:30:32.782Z,124.10
2018-07-07T03:31:32.787Z,114.00
2018-07-07T03:32:32.785Z,129.80
2018-07-07T03:33:32.961Z,126.70
2018-07-07T03:34:32.834Z,126.50
2018-07-07T03:35:32.830Z,117.20
2018-07-07T03:36:32.867Z,122.30
2018-07-07T03:37:32.867Z,115.20
2018-07-07T03:38:32.971Z,122.60
2018-07-07T03:39:32.892Z,121.30
2018-07-07T03:40:32.885Z,118.20
2018-07-07T03:41:32.924Z,127.80
2018-07-07T03:42:32.915Z,110.50
2018-07-07T03:43:33.047Z,113.20
2018-07-07T03:44:32.944Z,117.50
2018-07-07T03:45:32.955Z,106.50
2018-07-07T03:46:32.968Z,111.00
2018-07-07T03:47:33.000Z,111.20
2018-07-07T03:48:33.102Z,103.30
2018-07-07T03:49:33.034Z,109.80
2018-07-07T03:50:33.021Z,102.50
2018-07-07T03:51:33.049Z,103.60
2018-07-07T03:52:33.042Z,107.80
2018-07-07T03:53:33.152Z,94.80
2018-07-07T03:54:33.071Z,97.00
2018-07-07T03:55:33.102Z,102.40
2018-07-07T03:56:33.111Z,97.60
2018-07-07T03:57:33.134Z,96.70
2018-07-07T03:58:33.354Z,105.10
2018-07-07T03:59:33.160Z,97.50
2018-07-07T04:00:33.172Z,94.90
2018-07-07T04:01:33.158Z,101.40
2018-07-07T04:02:33.184Z,96.90
2018-07-07T04:03:33.400Z,96.80
2018-07-07T04:04:33.204Z,97.10
2018-07-07T04:05:33.229Z,94.10
2018-07-07T04:06:33.238Z,91.20
2018-07-07T04:07:33.262Z,96.60
2018-07-07T04:08:33.359Z,103.20
2018-07-07T04:09:33.275Z,95.40
2018-07-07T04:10:33.292Z,101.10
2018-07-07T04:11:33.299Z,104.90
2018-07-07T04:12:33.334Z,96.70
2018-07-07T04:13:33.430Z,105.70
2018-07-07T04:14:33.330Z,103.00
2018-07-07T04:15:33.366Z,93.40
2018-07-07T04:16:33.381Z,107.50
2018-07-07T04:17:33.366Z,97.30
2018-07-07T04:18:33.486Z,94.00
2018-07-07T04:19:33.417Z,100.50
2018-07-07T04:20:33.427Z,87.10
2018-07-07T04:21:33.421Z,83.90
2018-07-07T04:22:33.444Z,93.60
2018-07-07T04:23:33.467Z,88.20
2018-07-07T04:24:33.676Z,90.90
2018-07-07T04:25:33.494Z,91.20
2018-07-07T04:26:33.509Z,91.60
2018-07-07T04:27:33.523Z,92.10
2018-07-07T04:28:33.532Z,92.40
2018-07-07T04:29:33.705Z,91.40
2018-07-07T04:30:33.608Z,89.60
2018-07-07T04:31:33.566Z,89.00
2018-07-07T04:32:33.589Z,91.80
2018-07-07T04:33:33.595Z,89.10
2018-07-07T04:34:33.605Z,88.10
2018-07-07T04:35:33.806Z,87.60
2018-07-07T04:36:33.614Z,87.20
2018-07-07T04:37:33.637Z,97.40
2018-07-07T04:38:33.650Z,96.70
2018-07-07T04:39:33.651Z,85.90
2018-07-07T04:40:33.864Z,90.20
2018-07-07T04:41:33.703Z,84.50
2018-07-07T04:42:33.717Z,85.10
2018-07-07T04:43:33.715Z,85.20
2018-07-07T04:44:33.742Z,85.80
2018-07-07T04:45:33.754Z,82.90
2018-07-07T04:46:33.895Z,83.40
2018-07-07T04:47:33.767Z,78.20
2018-07-07T04:48:33.792Z,83.70
2018-07-07T04:49:33.802Z,82.80
2018-07-07T04:50:33.805Z,89.70
2018-07-07T04:51:33.872Z,89.00
2018-07-07T04:52:33.971Z,88.70
2018-07-07T04:53:33.836Z,94.70
2018-07-07T04:54:33.869Z,97.00
2018-07-07T04:55:33.869Z,90.70
2018-07-07T04:56:33.889Z,90.10
2018-07-07T04:57:34.095Z,90.50
2018-07-07T04:58:33.900Z,89.90
2018-07-07T04:59:33.921Z,91.70
2018-07-07T05:00:33.926Z,85.40
2018-07-07T05:01:33.938Z,86.00
2018-07-07T05:02:34.018Z,88.50
2018-07-07T05:03:33.989Z,86.30
2018-07-07T05:04:34.062Z,86.10
2018-07-07T05:05:34.190Z,94.90
2018-07-07T05:06:33.998Z,93.10
2018-07-07T05:07:34.026Z,91.00
2018-07-07T05:08:34.027Z,87.20
2018-07-07T05:09:34.056Z,97.30
2018-07-07T05:10:34.117Z,91.30
2018-07-07T05:11:34.067Z,97.00
2018-07-07T05:12:34.187Z,93.10
2018-07-07T05:13:34.091Z,92.00
2018-07-07T05:14:34.102Z,89.30
2018-07-07T05:15:34.174Z,87.30
2018-07-07T05:16:34.146Z,86.30
2018-07-07T05:17:34.202Z,82.90
2018-07-07T05:18:34.319Z,90.60
2018-07-07T05:19:34.176Z,95.10
2018-07-07T05:20:34.200Z,96.00
2018-07-07T05:21:34.218Z,92.70
2018-07-07T05:22:34.229Z,87.10
2018-07-07T05:23:34.446Z,99.30
2018-07-07T05:24:34.237Z,95.90
2018-07-07T05:25:34.264Z,99.90
2018-07-07T05:26:34.259Z,107.70
2018-07-07T05:27:34.278Z,101.10
2018-07-07T05:28:34.444Z,99.30
2018-07-07T05:29:34.306Z,87.00
2018-07-07T05:30:34.332Z,88.10
2018-07-07T05:31:34.322Z,95.60
2018-07-07T05:32:34.358Z,100.10
2018-07-07T05:33:34.442Z,100.60
2018-07-07T05:34:34.389Z,104.30
2018-07-07T05:35:34.391Z,100.80
2018-07-07T05:36:34.399Z,92.90
2018-07-07T05:37:34.422Z,106.70
2018-07-07T05:38:34.611Z,110.20
2018-07-07T05:39:34.442Z,109.70
2018-07-07T05:40:34.469Z,104.10
2018-07-07T05:41:34.472Z,109.10
2018-07-07T05:42:34.479Z,110.00
2018-07-07T05:43:34.589Z,104.60
2018-07-07T05:44:34.497Z,107.40
2018-07-07T05:45:34.500Z,109.90
2018-07-07T05:46:34.507Z,102.80
2018-07-07T05:47:34.538Z,104.40
2018-07-07T05:48:34.762Z,110.80
2018-07-07T05:49:34.556Z,106.10
2018-07-07T05:50:34.570Z,107.80
2018-07-07T05:51:34.592Z,107.70
2018-07-07T05:52:34.606Z,112.20
2018-07-07T05:53:34.819Z,112.70
2018-07-07T05:54:34.630Z,114.00
2018-07-07T05:55:34.639Z,113.90
2018-07-07T05:56:34.648Z,119.20
2018-07-07T05:57:34.661Z,123.30
2018-07-07T05:58:34.839Z,122.90
2018-07-07T05:59:34.673Z,126.50
2018-07-07T06:00:34.699Z,120.80
2018-07-07T06:01:34.711Z,116.20
2018-07-07T06:02:34.733Z,117.30
2018-07-07T06:03:34.736Z,112.50
2018-07-07T06:04:34.853Z,125.60
2018-07-07T06:05:34.755Z,129.30
2018-07-07T06:06:34.777Z,120.90
2018-07-07T06:07:34.784Z,115.10
2018-07-07T06:08:34.807Z,114.90
2018-07-07T06:09:34.815Z,122.00
2018-07-07T06:10:35.025Z,124.60
2018-07-07T06:11:34.853Z,120.10
2018-07-07T06:12:34.873Z,116.70
2018-07-07T06:13:34.874Z,115.60
2018-07-07T06:14:34.864Z,109.80
2018-07-07T06:15:35.083Z,114.20
2018-07-07T06:16:34.890Z,116.90
2018-07-07T06:17:34.917Z,120.70
2018-07-07T06:18:34.930Z,114.40
2018-07-07T06:19:34.949Z,117.40
2018-07-07T06:20:34.945Z,116.50
2018-07-07T06:21:35.056Z,114.90
2018-07-07T06:22:34.987Z,117.90
2018-07-07T06:23:34.995Z,116.00
2018-07-07T06:24:35.007Z,117.00
2018-07-07T06:25:35.016Z,118.00
2018-07-07T06:26:35.322Z,120.80
2018-07-07T06:27:35.033Z,114.30
2018-07-07T06:28:35.066Z,119.30
2018-07-07T06:29:35.090Z,120.20
2018-07-07T06:30:35.075Z,120.70
2018-07-07T06:31:35.252Z,123.50
2018-07-07T06:32:35.231Z,125.00
2018-07-07T06:33:35.114Z,135.50
2018-07-07T06:34:35.134Z,124.60
2018-07-07T06:35:35.147Z,125.00
2018-07-07T06:36:35.199Z,118.70
2018-07-07T06:37:35.191Z,124.20
2018-07-07T06:38:35.249Z,127.00
2018-07-07T06:39:35.197Z,124.80
2018-07-07T06:40:35.214Z,119.60
2018-07-07T06:41:35.425Z,128.10
2018-07-07T06:42:35.237Z,126.10
2018-07-07T06:43:35.299Z,120.00
2018-07-07T06:44:35.254Z,129.00
2018-07-07T06:45:35.294Z,131.60
2018-07-07T06:46:35.431Z,129.80
2018-07-07T06:47:35.308Z,134.30
2018-07-07T06:48:35.307Z,135.00
2018-07-07T06:49:35.325Z,129.40
2018-07-07T06:50:35.345Z,136.30
2018-07-07T06:51:35.352Z,130.20
2018-07-07T06:52:35.502Z,130.40
2018-07-07T06:53:35.446Z,131.60
2018-07-07T06:54:35.382Z,131.00
2018-07-07T06:55:35.408Z,141.10
2018-07-07T06:56:35.406Z,135.20
2018-07-07T06:57:35.579Z,133.30
2018-07-07T06:58:35.451Z,141.90
2018-07-07T06:59:35.492Z,140.30
2018-07-07T07:00:35.465Z,146.10
2018-07-07T07:01:35.466Z,142.20
2018-07-07T07:02:35.638Z,148.50
2018-07-07T07:03:35.508Z,150.90
2018-07-07T07:04:35.513Z,143.00
2018-07-07T07:05:35.519Z,151.10
2018-07-07T07:06:35.645Z,154.70
2018-07-07T07:07:35.701Z,151.40
2018-07-07T07:08:35.583Z,155.70
2018-07-07T07:09:35.587Z,158.40
2018-07-07T07:10:35.601Z,156.00
2018-07-07T07:11:35.614Z,165.90
2018-07-07T07:12:35.629Z,175.90
2018-07-07T07:13:35.718Z,179.80
2018-07-07T07:14:35.646Z,175.40
2018-07-07T07:15:35.655Z,187.70
2018-07-07T07:16:35.669Z,190.90
2018-07-07T07:17:35.677Z,186.00
2018-07-07T07:18:35.694Z,177.50
2018-07-07T07:19:35.751Z,193.10
2018-07-07T07:20:35.718Z,184.50
2018-07-07T07:21:35.729Z,200.70
2018-07-07T07:22:35.929Z,201.00
2018-07-07T07:23:35.741Z,206.30
2018-07-07T07:24:35.770Z,205.60
2018-07-07T07:25:35.798Z,199.80
2018-07-07T07:26:35.829Z,201.30
2018-07-07T07:27:35.888Z,198.40
2018-07-07T07:28:35.822Z,209.10
2018-07-07T07:29:35.821Z,200.50
2018-07-07T07:30:35.839Z,205.80
2018-07-07T07:31:35.840Z,197.90
2018-07-07T07:32:36.008Z,218.10
2018-07-07T07:33:35.859Z,217.00
2018-07-07T07:34:35.875Z,219.20
2018-07-07T07:35:35.899Z,210.30
2018-07-07T07:36:35.901Z,223.80
2018-07-07T07:37:36.039Z,220.00
2018-07-07T07:38:35.938Z,231.50
2018-07-07T07:39:35.938Z,242.20
2018-07-07T07:40:35.970Z,232.90
2018-07-07T07:41:35.982Z,223.70
2018-07-07T07:42:36.131Z,244.70
2018-07-07T07:43:35.987Z,219.30
2018-07-07T07:44:36.014Z,220.70
2018-07-07T07:45:36.023Z,216.30
2018-07-07T07:46:36.038Z,227.00
2018-07-07T07:47:36.237Z,224.70
2018-07-07T07:48:36.065Z,224.50
2018-07-07T07:49:36.056Z,240.30
2018-07-07T07:50:36.068Z,241.30
2018-07-07T07:51:36.081Z,239.10
2018-07-07T07:52:36.207Z,256.90
2018-07-07T07:53:36.119Z,252.70
2018-07-07T07:54:36.124Z,252.00
2018-07-07T07:55:36.178Z,266.00
2018-07-07T07:56:36.157Z,279.90
2018-07-07T07:57:36.275Z,288.20
2018-07-07T07:58:36.179Z,292.40
2018-07-07T07:59:36.193Z,253.90
2018-07-07T08:00:36.213Z,266.20
2018-07-07T08:01:36.206Z,279.90
2018-07-07T08:02:36.357Z,271.90
2018-07-07T08:03:36.245Z,277.00
2018-07-07T08:04:36.235Z,285.00
2018-07-07T08:05:36.266Z,301.10
2018-07-07T08:06:36.263Z,307.80
2018-07-07T08:07:36.382Z,311.50
2018-07-07T08:08:36.286Z,307.90
2018-07-07T08:09:36.302Z,320.10
2018-07-07T08:10:36.326Z,315.60
2018-07-07T08:11:36.482Z,323.60
2018-07-07T08:12:36.347Z,331.50
2018-07-07T08:13:36.361Z,312.70
2018-07-07T08:14:36.380Z,316.10
2018-07-07T08:15:36.390Z,309.90
2018-07-07T08:16:36.508Z,310.80
2018-07-07T08:17:36.396Z,311.50
2018-07-07T08:18:36.396Z,336.10
2018-07-07T08:19:36.421Z,332.80
2018-07-07T08:20:36.431Z,311.50
2018-07-07T08:21:36.536Z,337.60
2018-07-07T08:22:36.496Z,318.00
2018-07-07T08:23:36.462Z,326.50
2018-07-07T08:24:36.481Z,320.30
2018-07-07T08:25:36.481Z,320.10
2018-07-07T08:26:36.609Z,320.60
2018-07-07T08:27:36.520Z,321.40
2018-07-07T08:28:36.512Z,327.90
2018-07-07T08:29:36.590Z,319.20
2018-07-07T08:30:36.563Z,333.10
2018-07-07T08:31:36.674Z,333.90
2018-07-07T08:32:36.572Z,317.60
2018-07-07T08:33:36.577Z,319.10
2018-07-07T08:34:36.599Z,314.10
2018-07-07T08:35:36.594Z,322.80
2018-07-07T08:36:36.677Z,317.90
2018-07-07T08:37:36.739Z,331.20
2018-07-07T08:38:36.651Z,309.30
2018-07-07T08:39:36.662Z,315.60
2018-07-07T08:40:36.652Z,335.20
2018-07-07T08:41:36.679Z,338.00
2018-07-07T08:42:36.800Z,369.70
2018-07-07T08:43:36.693Z,314.70
2018-07-07T08:44:36.759Z,314.50
2018-07-07T08:45:36.728Z,333.60
2018-07-07T08:46:36.745Z,333.10
2018-07-07T08:47:36.855Z,313.50
2018-07-07T08:48:36.771Z,297.30
2018-07-07T08:49:36.811Z,303.50
2018-07-07T08:50:36.789Z,315.00
2018-07-07T08:51:36.794Z,283.40
2018-07-07T08:52:36.914Z,289.60
2018-07-07T08:53:36.811Z,294.20
2018-07-07T08:54:36.816Z,287.10
2018-07-07T08:55:36.843Z,285.00
2018-07-07T08:56:36.852Z,298.00
2018-07-07T08:57:36.963Z,278.00
2018-07-07T08:58:36.887Z,284.20
2018-07-07T08:59:36.896Z,290.20
2018-07-07T09:00:36.912Z,286.50
2018-07-07T09:01:36.950Z,293.20
2018-07-07T09:02:37.022Z,278.10
2018-07-07T09:03:36.941Z,281.90
2018-07-07T09:04:36.941Z,304.90
2018-07-07T09:05:36.959Z,287.10
2018-07-07T09:06:36.971Z,290.10
2018-07-07T09:07:37.094Z,284.10
2018-07-07T09:08:36.987Z,288.40
2018-07-07T09:09:37.018Z,289.00
2018-07-07T09:10:37.025Z,264.90
2018-07-07T09:11:37.017Z,276.10
2018-07-07T09:12:37.098Z,271.80
2018-07-07T09:13:37.049Z,257.00
2018-07-07T09:14:37.258Z,263.60
2018-07-07T09:15:37.079Z,275.60
2018-07-07T09:16:37.079Z,284.00
2018-07-07T09:17:37.096Z,274.20
2018-07-07T09:18:37.100Z,271.70
2018-07-07T09:19:37.218Z,267.20
2018-07-07T09:20:37.134Z,277.10
2018-07-07T09:21:37.131Z,278.00
2018-07-07T09:22:37.193Z,274.10
2018-07-07T09:23:37.175Z,273.10
2018-07-07T09:24:37.321Z,260.60
2018-07-07T09:25:37.188Z,259.60
2018-07-07T09:26:37.185Z,256.10
2018-07-07T09:27:37.336Z,268.80
2018-07-07T09:28:37.232Z,289.50
2018-07-07T09:29:37.341Z,278.00
2018-07-07T09:30:37.236Z,236.10
2018-07-07T09:31:37.265Z,239.80
2018-07-07T09:32:37.267Z,243.70
2018-07-07T09:33:37.288Z,277.50
2018-07-07T09:34:37.388Z,258.40
2018-07-07T09:35:37.292Z,262.50
2018-07-07T09:36:37.313Z,276.60
2018-07-07T09:37:37.327Z,302.20
2018-07-07T09:38:37.341Z,273.60
2018-07-07T09:39:37.453Z,259.30
2018-07-07T09:40:37.353Z,257.60
2018-07-07T09:41:37.425Z,245.20
2018-07-07T09:42:37.379Z,250.20
2018-07-07T09:43:37.397Z,241.30
2018-07-07T09:44:37.521Z,249.50
2018-07-07T09:45:37.417Z,245.00
2018-07-07T09:46:37.438Z,237.30
2018-07-07T09:47:37.440Z,225.20
2018-07-07T09:48:37.467Z,224.80
2018-07-07T09:49:37.479Z,233.10
2018-07-07T09:50:37.584Z,244.20
2018-07-07T09:51:37.497Z,230.70
2018-07-07T09:52:37.524Z,214.60
2018-07-07T09:53:37.525Z,226.90
2018-07-07T09:54:37.515Z,213.60
2018-07-07T09:55:37.640Z,217.80
2018-07-07T09:56:37.539Z,223.80
2018-07-07T09:57:37.570Z,237.70
2018-07-07T09:58:37.561Z,225.50
2018-07-07T09:59:37.568Z,242.10
2018-07-07T10:00:37.684Z,233.00
2018-07-07T10:01:37.612Z,230.70
2018-07-07T10:02:37.607Z,230.60
2018-07-07T10:03:37.636Z,230.60
2018-07-07T10:04:37.644Z,211.50
2018-07-07T10:05:37.646Z,212.60
2018-07-07T10:06:37.804Z,210.40
2018-07-07T10:07:37.701Z,189.80
2018-07-07T10:08:37.733Z,185.40
2018-07-07T10:09:37.704Z,191.30
2018-07-07T10:10:37.716Z,200.10
2018-07-07T10:11:37.719Z,192.20
2018-07-07T10:12:37.788Z,187.10
2018-07-07T10:13:37.745Z,169.10
2018-07-07T10:14:37.841Z,179.70
2018-07-07T10:15:37.781Z,172.20
2018-07-07T10:16:37.827Z,164.60
2018-07-07T10:17:37.805Z,158.00
2018-07-07T10:18:37.805Z,151.50
2018-07-07T10:19:37.820Z,143.90
2018-07-07T10:20:37.979Z,145.80
2018-07-07T10:21:37.837Z,143.50
2018-07-07T10:22:37.856Z,141.30
2018-07-07T10:23:37.872Z,150.10
2018-07-07T10:24:37.882Z,149.10
2018-07-07T10:25:37.886Z,135.00
2018-07-07T10:26:37.995Z,135.40
2018-07-07T10:27:37.927Z,142.60
2018-07-07T10:28:37.926Z,136.40
2018-07-07T10:29:37.945Z,129.10
2018-07-07T10:30:37.945Z,136.20
2018-07-07T10:31:38.024Z,124.20
2018-07-07T10:32:38.083Z,126.80
2018-07-07T10:33:37.991Z,119.90
2018-07-07T10:34:37.996Z,115.80
2018-07-07T10:35:38.004Z,105.00
2018-07-07T10:36:38.029Z,110.00
2018-07-07T10:37:38.151Z,106.20
2018-07-07T10:38:38.062Z,109.10
2018-07-07T10:39:38.062Z,105.70
2018-07-07T10:40:38.087Z,101.70
2018-07-07T10:41:38.086Z,89.80
2018-07-07T10:42:38.243Z,96.80
2018-07-07T10:43:38.127Z,86.10
2018-07-07T10:44:38.116Z,85.20
2018-07-07T10:45:38.209Z,93.20
2018-07-07T10:46:38.155Z,89.70
2018-07-07T10:47:38.276Z,81.30
2018-07-07T10:48:38.183Z,83.90
2018-07-07T10:49:38.210Z,80.00
2018-07-07T10:50:38.208Z,76.00
2018-07-07T10:51:38.245Z,70.30
2018-07-07T10:52:38.359Z,73.80
2018-07-07T10:53:38.249Z,72.40
2018-07-07T10:54:38.279Z,73.00
2018-07-07T10:55:38.352Z,73.40
2018-07-07T10:56:38.290Z,72.80
2018-07-07T10:57:38.409Z,76.40
2018-07-07T10:58:38.335Z,65.10
2018-07-07T10:59:38.342Z,65.00
2018-07-07T11:00:38.346Z,70.10
2018-07-07T11:01:38.378Z,71.80
2018-07-07T11:02:38.489Z,70.20
2018-07-07T11:03:38.448Z,71.40
2018-07-07T11:04:38.427Z,75.50
2018-07-07T11:05:38.434Z,80.50
2018-07-07T11:06:38.462Z,68.40
2018-07-07T11:07:38.459Z,68.50
2018-07-07T11:08:38.629Z,63.30
2018-07-07T11:09:38.519Z,67.40
2018-07-07T11:10:38.515Z,70.30
2018-07-07T11:11:38.588Z,63.70
2018-07-07T11:12:38.557Z,62.30
2018-07-07T11:13:38.672Z,61.40
2018-07-07T11:14:38.581Z,58.30
2018-07-07T11:15:38.597Z,68.10
2018-07-07T11:16:38.618Z,61.70
2018-07-07T11:17:38.619Z,67.20
2018-07-07T11:18:38.758Z,63.80
2018-07-07T11:19:38.711Z,59.00
2018-07-07T11:20:38.696Z,58.60
2018-07-07T11:21:38.705Z,58.90
2018-07-07T11:22:38.702Z,64.90
2018-07-07T11:23:38.841Z,66.10
2018-07-07T11:24:38.754Z,75.40
2018-07-07T11:25:38.756Z,79.20
2018-07-07T11:26:38.787Z,81.70
2018-07-07T11:27:38.801Z,77.80
2018-07-07T11:28:38.910Z,71.30
2018-07-07T11:29:38.848Z,70.10
2018-07-07T11:30:38.867Z,66.40
2018-07-07T11:31:38.872Z,67.00
2018-07-07T11:32:38.903Z,68.10
2018-07-07T11:33:39.049Z,73.40
2018-07-07T11:34:38.922Z,69.90
2018-07-07T11:35:38.955Z,74.20
2018-07-07T11:36:39.338Z,80.40
2018-07-07T11:37:38.969Z,77.50
2018-07-07T11:38:39.109Z,74.10
2018-07-07T11:39:39.024Z,75.90
2018-07-07T11:40:39.037Z,77.30
2018-07-07T11:41:39.072Z,72.40
2018-07-07T11:42:39.065Z,73.40
2018-07-07T11:43:39.180Z,72.70
2018-07-07T11:44:39.114Z,71.90
2018-07-07T11:45:39.131Z,66.50
2018-07-07T11:46:39.140Z,69.40
2018-07-07T11:47:39.148Z,66.40
2018-07-07T11:48:39.278Z,64.80
2018-07-07T11:49:39.173Z,72.20
2018-07-07T11:50:39.215Z,67.60
2018-07-07T11:51:39.308Z,70.80
2018-07-07T11:52:39.253Z,73.00
2018-07-07T11:53:39.405Z,73.00
2018-07-07T11:54:39.276Z,68.00
2018-07-07T11:55:39.300Z,74.80
2018-07-07T11:56:39.306Z,68.50
2018-07-07T11:57:39.337Z,74.00
2018-07-07T11:58:39.334Z,66.50
2018-07-07T11:59:39.466Z,63.90
2018-07-07T12:00:39.389Z,71.10
2018-07-07T12:01:39.433Z,66.40
2018-07-07T12:02:39.429Z,62.20
2018-07-07T12:03:39.441Z,61.60
2018-07-07T12:04:39.696Z,67.10
2018-07-07T12:05:39.521Z,65.20
2018-07-07T12:06:39.493Z,63.20
2018-07-07T12:07:39.502Z,67.80
2018-07-07T12:08:39.529Z,68.50
2018-07-07T12:09:39.655Z,69.10
2018-07-07T12:10:39.580Z,64.90
2018-07-07T12:11:39.649Z,71.60
2018-07-07T12:12:39.618Z,67.10
2018-07-07T12:13:39.616Z,68.90
2018-07-07T12:14:39.733Z,76.60
2018-07-07T12:15:39.669Z,69.00
2018-07-07T12:16:39.681Z,74.30
2018-07-07T12:17:39.707Z,68.40
2018-07-07T12:18:39.728Z,69.10
2018-07-07T12:19:39.740Z,70.00
2018-07-07T12:20:39.854Z,74.80
2018-07-07T12:21:39.768Z,73.30
2018-07-07T12:22:39.787Z,75.10
2018-07-07T12:23:39.805Z,71.40
2018-07-07T12:24:39.850Z,65.90
2018-07-07T12:25:39.871Z,73.40
2018-07-07T12:26:39.978Z,71.30
2018-07-07T12:27:39.891Z,69.00
2018-07-07T12:28:39.897Z,74.70
2018-07-07T12:29:39.926Z,70.60
2018-07-07T12:30:39.949Z,81.00
2018-07-07T12:31:40.055Z,78.30
2018-07-07T12:32:39.973Z,76.00
2018-07-07T12:33:40.008Z,71.70
2018-07-07T12:34:40.043Z,76.40
2018-07-07T12:35:40.059Z,73.50
2018-07-07T12:36:40.138Z,82.80